createdAt,value
2023-12-30T00:04:55.290Z,1.20
2023-12-30T00:09:58.128Z,1.73
2023-12-30T00:15:00.958Z,1.27
2023-12-30T00:20:04.068Z,1.55
2023-12-30T00:25:08.805Z,1.88
2023-12-30T00:30:16.791Z,1.73
2023-12-30T00:35:19.844Z,2.17
2023-12-30T00:40:26.836Z,1.60
2023-12-30T00:45:30.663Z,1.50
2023-12-30T00:50:33.522Z,1.30
2023-12-30T00:55:36.320Z,1.30
2023-12-30T01:00:39.159Z,1.70
2023-12-30T01:05:42.173Z,1.33
2023-12-30T01:10:45.035Z,1.75
2023-12-30T01:15:48.109Z,0.73
2023-12-30T01:20:50.927Z,0.90
2023-12-30T01:25:53.842Z,1.40
2023-12-30T01:30:56.935Z,1.37
2023-12-30T01:35:59.821Z,0.82
2023-12-30T01:41:02.581Z,1.90
2023-12-30T01:46:09.054Z,1.13
2023-12-30T01:51:24.324Z,0.93
2023-12-30T01:56:29.403Z,1.27
2023-12-30T02:01:32.773Z,1.90
2023-12-30T02:06:35.616Z,1.63
2023-12-30T02:11:39.382Z,1.17
2023-12-30T02:16:42.304Z,1.92
2023-12-30T02:21:45.272Z,1.57
2023-12-30T02:26:48.567Z,2.20
2023-12-30T02:31:51.881Z,1.48
2023-12-30T02:36:54.776Z,1.40
2023-12-30T02:41:57.591Z,1.48
2023-12-30T02:47:00.263Z,1.57
2023-12-30T02:52:03.178Z,1.88
2023-12-30T02:57:07.350Z,1.67
2023-12-30T03:02:10.298Z,1.50
2023-12-30T03:07:13.098Z,1.40
2023-12-30T03:12:16.737Z,2.20
2023-12-30T03:17:19.868Z,2.05
2023-12-30T03:22:22.655Z,1.70
2023-12-30T03:27:25.423Z,1.53
2023-12-30T03:32:30.069Z,1.27
2023-12-30T03:37:32.922Z,1.47
2023-12-30T03:42:35.733Z,1.15
2023-12-30T03:47:38.576Z,1.40
2023-12-30T03:52:41.284Z,1.30
2023-12-30T03:57:44.242Z,1.45
2023-12-30T04:02:48.733Z,1.33
2023-12-30T04:07:52.032Z,2.20
2023-12-30T04:12:54.843Z,1.25
2023-12-30T04:17:57.938Z,0.93
2023-12-30T04:23:01.314Z,1.45
2023-12-30T04:28:04.772Z,1.10
2023-12-30T04:33:08.198Z,0.88
2023-12-30T04:38:12.129Z,1.50
2023-12-30T04:43:15.110Z,1.07
2023-12-30T04:48:18.693Z,1.17
2023-12-30T04:53:21.686Z,1.53
2023-12-30T04:58:24.883Z,1.50
2023-12-30T05:03:27.700Z,1.60
2023-12-30T05:08:31.242Z,1.70
2023-12-30T05:13:34.097Z,1.60
2023-12-30T05:18:37.170Z,1.20
2023-12-30T05:23:40.078Z,1.83
2023-12-30T05:28:43.105Z,0.98
2023-12-30T05:33:45.948Z,1.43
2023-12-30T05:38:49.242Z,1.25
2023-12-30T05:43:52.695Z,1.90
2023-12-30T05:48:56.570Z,1.52
2023-12-30T05:53:59.379Z,1.58
2023-12-30T05:59:02.236Z,1.33
2023-12-30T06:04:05.280Z,0.90
2023-12-30T06:09:09.019Z,1.40
2023-12-30T06:14:11.802Z,1.70
2023-12-30T06:19:17.974Z,1.45
2023-12-30T06:24:21.100Z,1.73
2023-12-30T06:29:24.736Z,2.03
2023-12-30T06:34:27.500Z,1.80
2023-12-30T06:39:30.423Z,1.35
2023-12-30T06:44:33.178Z,1.08
2023-12-30T06:49:40.762Z,0.73
2023-12-30T06:54:43.620Z,1.55
2023-12-30T06:59:46.636Z,1.40
2023-12-30T07:04:49.896Z,1.33
2023-12-30T07:09:52.980Z,0.98
2023-12-30T07:14:56.243Z,1.60
2023-12-30T07:20:00.548Z,1.50
2023-12-30T07:25:03.711Z,0.87
2023-12-30T07:30:07.932Z,1.30
2023-12-30T07:35:10.763Z,1.17
2023-12-30T07:40:14.726Z,1.57
2023-12-30T07:45:17.817Z,1.15
2023-12-30T07:50:20.830Z,2.10
2023-12-30T07:55:25.901Z,1.25
2023-12-30T08:00:28.828Z,1.50
2023-12-30T08:05:31.905Z,1.10
2023-12-30T08:10:35.017Z,1.70
2023-12-30T08:15:37.887Z,1.30
2023-12-30T08:20:40.718Z,1.33
2023-12-30T08:25:43.761Z,1.00
2023-12-30T08:30:48.390Z,1.17
2023-12-30T08:35:51.359Z,1.10
2023-12-30T08:40:54.215Z,1.30
2023-12-30T08:45:57.483Z,1.30
2023-12-30T08:51:00.804Z,1.35
2023-12-30T08:56:04.265Z,1.23
2023-12-30T09:01:07.753Z,1.60
2023-12-30T09:06:10.751Z,1.50
2023-12-30T09:11:24.246Z,1.17
2023-12-30T09:16:27.582Z,1.20
2023-12-30T09:21:31.191Z,1.43
2023-12-30T09:26:34.114Z,1.65
2023-12-30T09:31:36.985Z,1.10
2023-12-30T09:36:40.169Z,1.20
2023-12-30T09:41:43.032Z,1.30
2023-12-30T09:46:48.919Z,1.57
2023-12-30T09:51:51.921Z,1.17
2023-12-30T09:56:54.874Z,1.40
2023-12-30T10:02:01.728Z,1.25
2023-12-30T10:07:06.280Z,1.23
2023-12-30T10:12:11.502Z,1.20
2023-12-30T10:17:15.155Z,1.02
2023-12-30T10:22:18.392Z,1.50
2023-12-30T10:27:22.574Z,1.27
2023-12-30T10:32:25.615Z,1.10
2023-12-30T10:37:30.625Z,1.20
2023-12-30T10:42:33.493Z,1.40
2023-12-30T10:47:44.151Z,1.30
2023-12-30T10:52:53.698Z,0.98
2023-12-30T10:58:15.135Z,1.00
2023-12-30T11:03:18.055Z,0.80
2023-12-30T11:08:21.776Z,0.90
2023-12-30T11:13:25.514Z,0.80
2023-12-30T11:18:51.214Z,1.10
2023-12-30T11:24:04.856Z,1.15
2023-12-30T11:29:21.371Z,1.00
2023-12-30T11:34:26.153Z,0.93
2023-12-30T11:39:31.991Z,0.70
2023-12-30T11:44:35.488Z,1.17
2023-12-30T11:49:38.873Z,1.13
2023-12-30T11:54:42.149Z,1.00
2023-12-30T11:59:45.691Z,1.27
2023-12-30T12:04:48.728Z,1.13
2023-12-30T12:09:51.749Z,1.20
2023-12-30T12:14:55.160Z,0.68
2023-12-30T12:19:59.122Z,1.27
2023-12-30T12:25:05.749Z,1.63
2023-12-30T12:30:11.018Z,1.60
2023-12-30T12:35:14.134Z,1.58
2023-12-30T12:40:17.626Z,1.13
2023-12-30T12:45:21.042Z,1.27
2023-12-30T12:50:23.780Z,1.20
2023-12-30T12:55:26.747Z,0.70
2023-12-30T13:00:29.634Z,0.70
2023-12-30T13:05:33.050Z,0.57
2023-12-30T13:10:47.247Z,0.70
2023-12-30T13:15:50.636Z,1.00
2023-12-30T13:20:53.826Z,0.77
2023-12-30T13:25:56.869Z,0.60
2023-12-30T13:30:59.856Z,0.70
2023-12-30T13:36:09.057Z,0.73
2023-12-30T13:41:12.259Z,0.75
2023-12-30T13:46:38.177Z,0.80
2023-12-30T13:51:56.550Z,0.90
2023-12-30T13:57:13.438Z,0.80
2023-12-30T14:02:19.538Z,1.10
2023-12-30T14:07:30.176Z,0.95
2023-12-30T14:12:33.511Z,1.00
2023-12-30T14:17:37.323Z,1.40
2023-12-30T14:22:40.753Z,0.90
2023-12-30T14:27:45.227Z,1.07
2023-12-30T14:32:48.145Z,1.20
2023-12-30T14:37:51.341Z,1.20
2023-12-30T14:42:54.197Z,1.30
2023-12-30T14:47:58.377Z,0.60
2023-12-30T14:53:01.669Z,1.70
2023-12-30T14:58:06.244Z,1.73
2023-12-30T15:03:09.378Z,1.60
2023-12-30T15:08:13.129Z,1.88
2023-12-30T15:13:16.100Z,1.77
2023-12-30T15:18:21.334Z,1.90
2023-12-30T15:23:24.282Z,1.73
2023-12-30T15:28:27.154Z,1.80
2023-12-30T15:33:31.769Z,1.67
2023-12-30T15:38:34.619Z,2.58
2023-12-30T15:43:37.828Z,2.37
2023-12-30T15:48:40.686Z,3.35
2023-12-30T15:53:43.643Z,3.20
2023-12-30T15:58:46.638Z,2.97
2023-12-30T16:03:49.782Z,3.78
2023-12-30T16:08:53.777Z,6.77
2023-12-30T16:13:57.873Z,7.55
2023-12-30T16:19:01.365Z,5.83
2023-12-30T16:24:05.199Z,5.80
2023-12-30T16:29:08.069Z,5.30
2023-12-30T16:34:12.160Z,5.13
2023-12-30T16:39:15.213Z,6.45
2023-12-30T16:44:18.099Z,5.30
2023-12-30T16:49:21.055Z,5.68
2023-12-30T16:54:23.952Z,4.80
2023-12-30T16:59:27.123Z,4.40
2023-12-30T17:04:29.983Z,4.70
2023-12-30T17:09:32.919Z,6.07
2023-12-30T17:14:35.861Z,4.22
2023-12-30T17:19:39.150Z,5.47
2023-12-30T17:24:42.158Z,4.47
2023-12-30T17:29:44.922Z,5.28
2023-12-30T17:34:48.071Z,6.27
2023-12-30T17:39:51.070Z,6.57
2023-12-30T17:44:54.216Z,6.53
2023-12-30T17:49:57.704Z,5.87
2023-12-30T17:55:01.723Z,5.35
2023-12-30T18:00:05.188Z,6.33
2023-12-30T18:05:09.436Z,6.15
2023-12-30T18:10:12.369Z,5.15
2023-12-30T18:15:16.155Z,5.90
2023-12-30T18:20:19.478Z,6.95
2023-12-30T18:25:22.467Z,6.03
2023-12-30T18:30:25.342Z,6.55
2023-12-30T18:35:28.281Z,5.82
2023-12-30T18:40:31.255Z,5.83
2023-12-30T18:45:34.625Z,8.15
2023-12-30T18:50:37.425Z,14.23
2023-12-30T18:55:41.093Z,14.32
2023-12-30T19:00:43.985Z,7.80
2023-12-30T19:05:47.016Z,9.43
2023-12-30T19:10:50.324Z,8.88
2023-12-30T19:15:53.383Z,4.87
2023-12-30T19:20:57.497Z,8.15
2023-12-30T19:26:00.426Z,6.10
2023-12-30T19:31:03.419Z,5.43
2023-12-30T19:36:06.477Z,6.38
2023-12-30T19:41:09.891Z,6.43
2023-12-30T19:46:13.077Z,5.88
2023-12-30T19:51:15.985Z,3.95
2023-12-30T19:56:24.635Z,5.70
2023-12-30T20:01:27.580Z,4.80
2023-12-30T20:06:30.549Z,3.97
2023-12-30T20:11:33.763Z,3.08
2023-12-30T20:16:36.657Z,2.75
2023-12-30T20:21:39.888Z,3.67
2023-12-30T20:26:44.998Z,4.20
2023-12-30T20:31:47.822Z,4.07
2023-12-30T20:36:51.053Z,3.42
2023-12-30T20:41:54.147Z,4.13
2023-12-30T20:46:57.076Z,4.83
2023-12-30T20:52:00.399Z,4.43
2023-12-30T20:57:07.206Z,4.33
2023-12-30T21:02:12.829Z,3.38
2023-12-30T21:07:18.996Z,4.35
2023-12-30T21:12:27.821Z,3.43
2023-12-30T21:17:33.779Z,3.17
2023-12-30T21:22:39.352Z,2.77
2023-12-30T21:27:44.408Z,3.30
2023-12-30T21:32:53.381Z,3.00
2023-12-30T21:37:57.045Z,3.17
2023-12-30T21:43:02.548Z,3.35
2023-12-30T21:48:09.803Z,3.90
2023-12-30T21:53:18.090Z,3.95
2023-12-30T21:58:23.612Z,3.97
2023-12-30T22:03:29.456Z,4.63
2023-12-30T22:08:36.342Z,3.78
2023-12-30T22:13:41.807Z,3.87
2023-12-30T22:18:47.410Z,2.90
2023-12-30T22:23:52.884Z,4.20
2023-12-30T22:28:57.948Z,4.57
2023-12-30T22:34:02.701Z,4.45
2023-12-30T22:39:07.993Z,4.37
2023-12-30T22:44:13.100Z,5.07
2023-12-30T22:49:16.661Z,4.03
2023-12-30T22:54:19.506Z,5.30
2023-12-30T22:59:22.286Z,4.25
2023-12-30T23:04:25.084Z,4.40
2023-12-30T23:09:27.916Z,4.68
2023-12-30T23:14:30.793Z,3.80
2023-12-30T23:19:33.633Z,3.73
2023-12-30T23:24:36.495Z,4.22
2023-12-30T23:29:39.512Z,4.00
2023-12-30T23:34:49.000Z,4.82
2023-12-30T23:39:54.124Z,4.45
2023-12-30T23:44:56.843Z,4.53
2023-12-30T23:50:00.015Z,4.60
2023-12-30T23:55:04.632Z,4.60
